Cosmopolis, Brazil
Current Conditions -  °F | °C
As of 4:00 PM on Monday 24 Nov 2014 (Local Time) from SBKP Reporting Station
Rain Showers Rain Showers  
Wind Chill: 82°   Ceiling: 4000
Heat Index: 85°   Visibility: 6mi
Dew Point: 66°   Wind: 6mph
Humidity: 58%   Direction: 80°E
Pressure: NA   Gusts: NA
Location:  22.65°S, 47.2°W
Report Text: SBKP 241800Z 08005KT 9999 VCSH BKN040 FEW050TCU SCT080 28/19 Q1013
Loading
Personal Weather Stations






























Interactive Weather Map New forecast layout! Learn more

10-Day Weather Forecast

Advertisements
Track Severe Weather on mobile